EA1HWX-2
43.19.29N 005.50.96W
IN73BH aprs.fi
zuletzt gehoert:
2022-12-09T05:32:00Z
zuerst gehoert:
2022-06-05T12:27:47Z

APRS Ribera de Arriba [IN73BH], 2 Stunde(n), EA1HWX-2 [06:33:22, 0s].
EA1HWX 43.19.29N 005.50.96WIN73BH 0.573km 292°WNW05:32:00ZDMO - UHF 439.7250/431.0000 CC11(3EA1HWX-2)
EA1L 43.20.37N 005.51.13WIN73BI 2.356km 342°NNW05:30:14ZWind 005°/000kn, Böen bis 000kn, Temp 14.44c, Regen 0.0mm, letzte 24h 1.8mm, seit 0h 1.8mm, Baro 0997.5h, Hum: 0%(3EA1L-13)
33D00 43.21.63N 005.51.13WIN73BI 4.612km 351°N05:01:46Z33-D-00 Protección Civil REMER / Delegación del Gobierno en Asturias
EA1JBU 43.21.85N 005.51.13WIN73BI 5.016km 351°N05:32:02ZEA1JBU(3EA1JBU-1)
LEHU 43.22.63N 005.49.57WIN73CJ 6.543km 12°NNE05:30:04ZHelipuerto del HUCA: LEAS 090500Z 07006KT 020V120 7000 -RA BKN005 11/11 Q0999 NOSIG=
ED1ZAU 43.23.04N 005.52.75WIN73BJ 7.744km 338°NNW05:29:54ZRD625 438.5000/430.9000 CC1
EA1IMW 43.14.36N 005.46.93WIN73CF 10.186km 151°SSE05:31:42ZGRUPO RADIO GALENA (GRG) 430.4500/430.4500 CC1(3EA1IMW-1)
LEMR 43.25.83N 005.49.60WIN73CK 12.402km N05:30:04ZAerodromo de la Morgal (123.500MHz): LEAS 090500Z 07006KT 020V120 7000 -RA BKN005 11/11 Q0999 NOSIG=
LEGM 43.26.15N 005.49.84WIN73CK 12.983km N05:30:04ZHelipuerto de La Morgal (123.500MHz): LEAS 090500Z 07006KT 020V120 7000 -RA BKN005 11/11 Q0999 NOSIG=
EA1JBL 43.12.28N 005.47.42WIN73CE 13.444km 162°SSE05:30:33ZMMDVM DVMega 435.3000/435.3000 CC1
EB1DGC 43.12.60N 005.45.59WIN73CF 13.909km 151°SSE05:30:22ZMMDVM MMDVM HS Hat 433.4500/433.4500 CC1
EA1HWA 43.12.00N 005.47.40WIN73CE 13.967km 162°SSE05:30:45ZMMDVM MMDVM HS Hat 433.4500/433.4500 CC1
EA1IPU 43.26.21N 005.46.62WIN73CK 14.101km 22°NNE05:31:41ZMMDVM MMDVM HS Hat 439.8000/439.8000 CC1(3EA1IPU-1)
EA1RCG 43.09.45N 005.49.78WIN73CD 18.031km 177°S05:31:35ZGRUPO RADIO GALENA (GRG) 430.4500/430.4500 CC1(3EA1RCG-3)
EA1FLQ 43.22.00N 005.36.35WIN73EI 19.860km 75°ENE05:30:33ZMMDVM DVMega 430.9750/430.9750 CC1
ED1ZAY 43.29.47N 005.56.54WIN73AL 20.721km 337°NNW05:29:59ZRD625 438.3000/430.7000 CC1
ED1ZAS 43.27.52N 005.40.17WIN73DL 20.873km 42°NE05:29:54ZRD985 438.2250/430.6250 CC1
ED1ZAE 43.27.99N 005.40.54WIN73DL 21.192km 40°NE05:23:19ZWIDE3-3 ESAS3-3 IN73DL WWW.EA1URG.ORG(3ED1ZAE-3)
EA4ACU 43.29.56N 005.38.92WIN73EL 24.837km 39°NE05:32:25ZMMDVM MMDVM HS Hat 432.7000/432.7000 CC1(3EA4ACU-1)
EA1AHA 43.32.72N 005.54.38WIN73BN 25.635km 349°N05:32:23ZWind 000°/000kn, Böen bis 000kn, Temp 12.22c, Regen 0.0mm, letzte 24h 1.8mm, seit 0h 1.8mm, Baro 1001.1h, Hum: 91%(3EA1AHA-13)
ED1ZAD 43.07.90N 005.38.52WIN73ED 26.460km 142°SE05:19:54ZED1ZAD-3 APRS Digi/Igate(3ED1ZAD-3)
EA1FFA 43.31.53N 005.40.64WIN73DM 26.530km 30°NNE05:31:56ZMMDVM MMDVM HS Hat 438.8000/438.8000 CC1(3EA1FFA-1)
EB1TK 43.32.22N 005.42.32WIN73DM 26.621km 25°NNE05:25:18ZWind 040°/018kn, Böen bis 023kn, Temp 12.22c, Regen 0.0mm, letzte 24h 31.5mm, seit 0h 31.5mm, Baro 1001.7h, Hum: 91%(3EB1TK-13)
EA1DZR 43.31.48N 005.40.00WIN73DM 26.873km 32°NNE05:31:40ZMMDVM DVMega 431.1000/431.1000 CC1(3EA1DZR-1)
MMDVM MMDVM HS Hat 432.2000/432.2000 CC2(2EA1DZR-2)
MMDVM DV ADER 434.3500/434.3500 CC1(2EA1DZR-4)
EA1DZL 43.33.56N 005.55.78WIN73AN 27.561km 345°NNW05:32:52ZMMDVM MMDVM HS Hat 438.8000/438.8000 CC1(3EA1DZL-1)
EB1GEM 43.30.00N 005.36.07WIN73EM 28.008km 44°NE05:27:47ZWX3in1Plus2.0 U=13.3V,T=??.?C/??.?F(3EB1GEM-3)
LEEL 43.32.98N 005.41.71WIN73DN 28.221km 25°NNE05:30:05ZHelipuerto de El Musel: LEAS 090500Z 07006KT 020V120 7000 -RA BKN005 11/11 Q0999 NOSIG=
EA1IEJ 43.32.33N 005.38.92WIN73EM 28.988km 33°NNE05:31:46ZMMDVM DMO 222.3400/222.3400 CC1(3EA1IEJ-11)
EA1HJA 43.28.10N 005.30.45WIN73FL 31.747km 58°ENE05:33:02Z IN73FL WX3IN1+ 2.0 - V=13.9V,TX TEMP=43.2C
IN73FL WX3IN1+ 2.0 - V=13.3V,TX TEMP=23.1C(2EA1HJA-2)
EA1JW 43.31.35N 005.28.83WIN73GM 36.954km 52°NE05:31:33ZMMDVM MMDVM HS Hat 436.5000/436.5000 CC1(3EA1JW-3)
EA1FHR 43.28.72N 005.26.41WIN73GL 37.021km 61°ENE05:30:20ZMMDVM MMDVM HS Hat 439.1500/439.1500 CC1
EA1JAY 43.29.33N 005.26.78WIN73GL 37.162km 59°ENE05:30:05Z434.525MHz Nodo TETRA DMO(3EA1JAY-4)
EA1JAY(2EA1JAY-2)
EA1HWD 43.28.96N 005.26.30WIN73GL 37.376km 61°ENE05:30:36ZMMDVM MMDVM HS Hat 434.2500/434.2500 CC1
LETN 43.20.05N 006.22.69WIN63TI 43.331km 272°W05:30:04ZAerodromo de La Curiscada (Tineo): LEAS 090500Z 07006KT 020V120 7000 -RA BKN005 11/11 Q0999 NOSIG=
EC1KV 43.34.01N 006.16.01WIN63UN 43.893km 309°NW05:19:32Z VOLT.=13.7 V - TEMP.=??.? C(3EC1KV-1)

aprs.pl 5.0.011w DL3EL © 2006-2021 [8326296]